RJTT(METAR)
07/17 15:00
METAR RJTT 170600Z 11006KT 9999 FEW015 26/23 Q1012 NOSIG RMK 1CU015
A2990=
戻る
トップページへ戻る
IMOC Co,.Ltd.